createdAt,value
2023-12-27T00:00:01.830Z,23.8
2023-12-27T00:05:01.209Z,23.9
2023-12-27T00:10:01.620Z,23.9
2023-12-27T00:15:02.157Z,23.9
2023-12-27T00:20:01.497Z,23.9
2023-12-27T00:25:01.940Z,24
2023-12-27T00:30:01.392Z,23.9
2023-12-27T00:35:01.837Z,24.1
2023-12-27T00:40:01.781Z,24.1
2023-12-27T00:45:01.279Z,24.2
2023-12-27T00:50:01.691Z,24.2
2023-12-27T00:55:02.099Z,24.3
2023-12-27T01:00:01.622Z,24.3
2023-12-27T01:05:02.144Z,24.4
2023-12-27T01:10:01.488Z,24.4
2023-12-27T01:15:02.001Z,24.5
2023-12-27T01:20:01.503Z,24.6
2023-12-27T01:25:01.949Z,24.6
2023-12-27T01:30:01.534Z,24.7
2023-12-27T01:35:01.999Z,24.7
2023-12-27T01:40:01.457Z,24.7
2023-12-27T01:45:01.890Z,24.7
2023-12-27T01:50:01.296Z,24.8
2023-12-27T01:55:01.778Z,24.9
2023-12-27T02:00:01.253Z,24.9
2023-12-27T02:05:01.957Z,25.1
2023-12-27T02:10:01.279Z,25
2023-12-27T02:15:01.816Z,25.2
2023-12-27T02:20:01.190Z,25.3
2023-12-27T02:25:01.636Z,25.3
2023-12-27T02:30:02.105Z,25.3
2023-12-27T02:35:01.638Z,25.8
2023-12-27T02:40:01.979Z,25.9
2023-12-27T02:45:01.511Z,25.6
2023-12-27T02:50:01.906Z,25.7
2023-12-27T02:55:01.348Z,26
2023-12-27T03:00:01.768Z,25.9
2023-12-27T03:05:01.197Z,26.2
2023-12-27T03:10:01.644Z,26.1
2023-12-27T03:15:02.102Z,26.4
2023-12-27T03:20:01.528Z,26.4
2023-12-27T03:25:01.413Z,26.4
2023-12-27T03:30:01.959Z,26.3
2023-12-27T03:35:01.381Z,26.5
2023-12-27T03:40:01.826Z,26.8
2023-12-27T03:45:01.295Z,26.6
2023-12-27T03:50:01.710Z,27.2
2023-12-27T03:55:01.187Z,27.2
2023-12-27T04:00:01.656Z,27.3
2023-12-27T04:05:02.068Z,27.4
2023-12-27T04:10:01.572Z,27.6
2023-12-27T04:15:02.131Z,27.6
2023-12-27T04:20:01.594Z,27.7
2023-12-27T04:25:02.042Z,27.9
2023-12-27T04:30:01.594Z,28.1
2023-12-27T04:35:01.999Z,28.3
2023-12-27T04:40:01.421Z,28.2
2023-12-27T04:45:01.894Z,28.2
2023-12-27T04:50:01.475Z,28.4
2023-12-27T04:55:01.782Z,28.4
2023-12-27T05:00:01.265Z,28.1
2023-12-27T05:05:01.662Z,28.3
2023-12-27T05:10:01.129Z,28.6
2023-12-27T05:15:01.632Z,28.9
2023-12-27T05:20:02.074Z,29
2023-12-27T05:25:01.465Z,29
2023-12-27T05:30:01.922Z,28.9
2023-12-27T05:35:01.340Z,29.3
2023-12-27T05:40:01.827Z,29.3
2023-12-27T05:45:01.276Z,29.1
2023-12-27T05:50:01.784Z,29.4
2023-12-27T05:55:01.211Z,29.1
2023-12-27T06:00:01.735Z,29.3
2023-12-27T06:05:01.199Z,29.6
2023-12-27T06:10:01.598Z,29.7
2023-12-27T06:15:02.045Z,29.8
2023-12-27T06:20:01.507Z,29.5
2023-12-27T06:25:02.015Z,29.9
2023-12-27T06:30:01.428Z,30
2023-12-27T06:35:01.844Z,29.9
2023-12-27T06:40:01.303Z,30.1
2023-12-27T06:45:01.774Z,29.8
2023-12-27T06:50:01.204Z,29
2023-12-27T06:55:01.575Z,29.5
2023-12-27T07:00:02.131Z,29.4
2023-12-27T07:05:01.654Z,29.8
2023-12-27T07:10:01.150Z,30.1
2023-12-27T07:15:01.574Z,29.8
2023-12-27T07:20:02.032Z,29.8
2023-12-27T07:25:01.408Z,30.3
2023-12-27T07:30:01.920Z,30.3
2023-12-27T07:35:01.340Z,30.4
2023-12-27T07:40:01.805Z,30.6
2023-12-27T07:45:01.289Z,30.4
2023-12-27T07:50:01.837Z,30.8
2023-12-27T07:55:01.169Z,30.8
2023-12-27T08:00:01.920Z,30.6
2023-12-27T08:05:01.530Z,30.6
2023-12-27T08:10:01.991Z,30.6
2023-12-27T08:15:01.273Z,31.2
2023-12-27T08:20:01.593Z,31.2
2023-12-27T08:25:02.039Z,31.2
2023-12-27T08:30:01.608Z,31.3
2023-12-27T08:35:02.076Z,31.6
2023-12-27T08:40:01.575Z,31.4
2023-12-27T08:45:02.228Z,31.4
2023-12-27T08:50:04.556Z,32.3
2023-12-27T08:55:02.078Z,31.5
2023-12-27T09:00:01.639Z,31.8
2023-12-27T09:05:01.299Z,31.2
2023-12-27T09:10:01.757Z,31.1
2023-12-27T09:15:01.270Z,30.9
2023-12-27T09:20:01.752Z,31.2
2023-12-27T09:25:01.222Z,31.3
2023-12-27T09:30:01.884Z,31.6
2023-12-27T09:35:01.313Z,31.6
2023-12-27T09:40:01.750Z,32.3
2023-12-27T09:45:01.327Z,30.7
2023-12-27T09:50:01.777Z,31.1
2023-12-27T09:55:01.210Z,32.1
2023-12-27T10:00:01.295Z,31
2023-12-27T10:05:01.830Z,30.3
2023-12-27T10:10:07.632Z,31
2023-12-27T10:15:01.825Z,32.2
2023-12-27T10:20:01.267Z,32.2
2023-12-27T10:25:01.820Z,31.7
2023-12-27T10:30:01.450Z,32.4
2023-12-27T10:35:01.945Z,28.9
2023-12-27T10:40:01.266Z,29.3
2023-12-27T10:45:01.743Z,28.9
2023-12-27T10:50:01.388Z,28.8
2023-12-27T10:55:01.875Z,28.3
2023-12-27T11:00:01.408Z,27.9
2023-12-27T11:05:01.858Z,27.9
2023-12-27T11:10:01.275Z,27.9
2023-12-27T11:15:01.848Z,27.9
2023-12-27T11:20:01.309Z,27.3
2023-12-27T11:25:01.679Z,26.6
2023-12-27T11:30:01.341Z,26.4
2023-12-27T11:35:01.698Z,26.2
2023-12-27T11:40:01.178Z,26.1
2023-12-27T11:45:01.726Z,26
2023-12-27T11:50:01.220Z,26
2023-12-27T11:55:01.667Z,25.9
2023-12-27T12:00:02.138Z,25.8
2023-12-27T12:05:01.472Z,25.8
2023-12-27T12:10:01.975Z,26
2023-12-27T12:15:01.512Z,25.8
2023-12-27T12:20:02.011Z,25.4
2023-12-27T12:25:01.630Z,25.5
2023-12-27T12:30:02.155Z,25.4
2023-12-27T12:35:01.627Z,25.8
2023-12-27T12:40:02.295Z,25.5
2023-12-27T12:45:01.706Z,25.3
2023-12-27T12:50:02.133Z,25.5
2023-12-27T12:55:01.498Z,26.2
2023-12-27T13:00:02.030Z,27.6
2023-12-27T13:05:01.474Z,26.2
2023-12-27T13:10:02.174Z,27
2023-12-27T13:15:01.450Z,25.9
2023-12-27T13:20:01.960Z,25.6
2023-12-27T13:25:01.530Z,25.6
2023-12-27T13:30:02.193Z,25.6
2023-12-27T13:35:01.697Z,25.3
2023-12-27T13:40:01.215Z,25.3
2023-12-27T13:45:01.689Z,25.3
2023-12-27T13:50:01.480Z,26.9
2023-12-27T13:55:01.823Z,26.8
2023-12-27T14:00:01.310Z,26.2
2023-12-27T14:05:01.756Z,26.9
2023-12-27T14:10:01.170Z,26.8
2023-12-27T14:15:01.687Z,26.6
2023-12-27T14:20:01.551Z,26.6
2023-12-27T14:25:01.817Z,26.7
2023-12-27T14:30:01.368Z,27
2023-12-27T14:35:01.930Z,27.1
2023-12-27T14:40:01.327Z,27
2023-12-27T14:45:01.794Z,26.7
2023-12-27T14:50:01.299Z,26.4
2023-12-27T14:55:01.715Z,26.3
2023-12-27T15:00:02.108Z,25.9
2023-12-27T15:05:01.449Z,26.8
2023-12-27T15:10:01.933Z,26.5
2023-12-27T15:15:01.384Z,26
2023-12-27T15:20:01.913Z,25.6
2023-12-27T15:25:01.422Z,25.4
2023-12-27T15:30:02.059Z,25.3
2023-12-27T15:35:01.574Z,25.5
2023-12-27T15:40:01.505Z,25.3
2023-12-27T15:45:01.885Z,25.2
2023-12-27T15:50:01.486Z,24.9
2023-12-27T15:55:01.942Z,24.6
2023-12-27T16:00:01.377Z,24.7
2023-12-27T16:05:01.829Z,24.9
2023-12-27T16:10:01.330Z,25
2023-12-27T16:15:01.711Z,25
2023-12-27T16:20:02.245Z,24.9
2023-12-27T16:25:01.464Z,25.1
2023-12-27T16:30:02.061Z,25
2023-12-27T16:35:01.469Z,25
2023-12-27T16:40:01.285Z,25
2023-12-27T16:45:01.403Z,24.7
2023-12-27T16:50:01.949Z,24.9
2023-12-27T16:55:01.467Z,24.9
2023-12-27T17:00:02.028Z,24.9
2023-12-27T17:05:01.511Z,25
2023-12-27T17:10:01.923Z,24.9
2023-12-27T17:15:01.349Z,24.9
2023-12-27T17:20:01.975Z,24.8
2023-12-27T17:25:01.836Z,24.6
2023-12-27T17:30:01.701Z,24.6
2023-12-27T17:35:01.869Z,24.3
2023-12-27T17:40:01.774Z,23.9
2023-12-27T17:45:01.954Z,23.7
2023-12-27T17:50:01.639Z,23.6
2023-12-27T17:55:01.175Z,23.5
2023-12-27T18:00:02.053Z,23.4
2023-12-27T18:05:01.893Z,23.3
2023-12-27T18:10:01.818Z,23.4
2023-12-27T18:15:01.794Z,23.2
2023-12-27T18:20:01.803Z,23.1
2023-12-27T18:25:01.694Z,23
2023-12-27T18:30:01.530Z,23
2023-12-27T18:35:01.605Z,23.1
2023-12-27T18:40:01.495Z,23
2023-12-27T18:45:01.354Z,22.9
2023-12-27T18:50:01.453Z,23
2023-12-27T18:55:01.281Z,22.8
2023-12-27T19:00:01.151Z,22.8
2023-12-27T19:05:02.059Z,22.8
2023-12-27T19:10:02.000Z,22.9
2023-12-27T19:15:03.087Z,23
2023-12-27T19:20:01.743Z,23.2
2023-12-27T19:25:01.637Z,23.6
2023-12-27T19:30:01.655Z,23.9
2023-12-27T19:35:01.569Z,23.9
2023-12-27T19:40:01.992Z,24.1
2023-12-27T19:45:01.283Z,24.3
2023-12-27T19:50:01.358Z,24.5
2023-12-27T19:55:01.232Z,24.5
2023-12-27T20:00:02.054Z,24.5
2023-12-27T20:05:02.011Z,24.8
2023-12-27T20:10:01.914Z,24.7
2023-12-27T20:15:01.732Z,24.8
2023-12-27T20:20:01.645Z,24.9
2023-12-27T20:25:01.670Z,25.1
2023-12-27T20:30:01.643Z,25.3
2023-12-27T20:35:01.475Z,25.3
2023-12-27T20:40:01.351Z,25.4
2023-12-27T20:45:01.371Z,25.6
2023-12-27T20:50:01.325Z,25.4
2023-12-27T20:55:02.017Z,25.5
2023-12-27T21:00:02.004Z,25.5
2023-12-27T21:05:02.014Z,25.6
2023-12-27T21:10:02.225Z,25.6
2023-12-27T21:15:02.036Z,25.6
2023-12-27T21:20:02.165Z,25.5
2023-12-27T21:25:01.322Z,25.6
2023-12-27T21:30:02.263Z,25.6
2023-12-27T21:35:02.114Z,25.6
2023-12-27T21:40:02.052Z,25.6
2023-12-27T21:45:01.954Z,25.4
2023-12-27T21:50:01.935Z,25.5
2023-12-27T21:55:01.821Z,25.4
2023-12-27T22:00:02.097Z,25.4
2023-12-27T22:05:02.072Z,25.4
2023-12-27T22:10:02.079Z,25.4
2023-12-27T22:15:02.058Z,25.4
2023-12-27T22:20:02.088Z,25.4
2023-12-27T22:25:03.958Z,25.4
2023-12-27T22:30:01.370Z,25.3
2023-12-27T22:35:01.528Z,25.4
2023-12-27T22:40:01.474Z,25.3
2023-12-27T22:45:01.647Z,25.4
2023-12-27T22:50:01.604Z,25.4
2023-12-27T22:55:01.393Z,25.4
2023-12-27T23:00:01.306Z,25.4
2023-12-27T23:05:01.168Z,25.3
2023-12-27T23:10:02.003Z,25.3
2023-12-27T23:15:01.917Z,25.3
2023-12-27T23:20:03.150Z,25.3
2023-12-27T23:25:02.003Z,25.1
2023-12-27T23:30:01.374Z,25.1
2023-12-27T23:35:01.916Z,25.1
2023-12-27T23:40:01.309Z,25.1
2023-12-27T23:45:01.825Z,25.1
2023-12-27T23:50:01.204Z,25
2023-12-27T23:55:01.658Z,24.9
